sensor_id;sensor_type;location;lat;lon;timestamp;P1;durP1;ratioP1;P2;durP2;ratioP2
49296;SDS011;35163;48.878;18.040;2023-12-22T00:02:18;1.80;;;0.80;;
49296;SDS011;35163;48.878;18.040;2023-12-22T00:04:47;2.05;;;0.80;;
49296;SDS011;35163;48.878;18.040;2023-12-22T00:07:14;0.93;;;0.82;;
49296;SDS011;35163;48.878;18.040;2023-12-22T00:09:41;4.88;;;0.95;;
49296;SDS011;35163;48.878;18.040;2023-12-22T00:12:08;2.15;;;0.90;;
49296;SDS011;35163;48.878;18.040;2023-12-22T00:14:34;5.22;;;0.90;;
49296;SDS011;35163;48.878;18.040;2023-12-22T00:17:01;1.27;;;0.77;;
49296;SDS011;35163;48.878;18.040;2023-12-22T00:19:28;4.10;;;1.20;;
49296;SDS011;35163;48.878;18.040;2023-12-22T00:21:55;0.90;;;0.70;;
49296;SDS011;35163;48.878;18.040;2023-12-22T00:24:22;1.98;;;0.80;;
49296;SDS011;35163;48.878;18.040;2023-12-22T00:26:48;1.20;;;0.70;;
49296;SDS011;35163;48.878;18.040;2023-12-22T00:29:15;1.05;;;0.65;;
49296;SDS011;35163;48.878;18.040;2023-12-22T00:31:45;3.30;;;1.23;;
49296;SDS011;35163;48.878;18.040;2023-12-22T00:34:12;0.98;;;0.60;;
49296;SDS011;35163;48.878;18.040;2023-12-22T00:36:39;0.93;;;0.82;;
49296;SDS011;35163;48.878;18.040;2023-12-22T00:39:06;2.28;;;0.90;;
49296;SDS011;35163;48.878;18.040;2023-12-22T00:41:34;1.73;;;0.60;;
49296;SDS011;35163;48.878;18.040;2023-12-22T00:44:00;2.70;;;0.82;;
49296;SDS011;35163;48.878;18.040;2023-12-22T00:46:27;4.13;;;1.55;;
49296;SDS011;35163;48.878;18.040;2023-12-22T00:48:54;3.63;;;0.80;;
49296;SDS011;35163;48.878;18.040;2023-12-22T00:51:20;2.10;;;0.80;;
49296;SDS011;35163;48.878;18.040;2023-12-22T00:53:47;2.10;;;0.70;;
49296;SDS011;35163;48.878;18.040;2023-12-22T00:56:14;2.35;;;0.80;;
49296;SDS011;35163;48.878;18.040;2023-12-22T00:58:40;1.83;;;0.75;;
49296;SDS011;35163;48.878;18.040;2023-12-22T01:01:09;3.00;;;0.90;;
49296;SDS011;35163;48.878;18.040;2023-12-22T01:03:36;3.00;;;0.85;;
49296;SDS011;35163;48.878;18.040;2023-12-22T01:06:03;1.48;;;0.80;;
49296;SDS011;35163;48.878;18.040;2023-12-22T01:08:30;2.85;;;1.17;;
49296;SDS011;35163;48.878;18.040;2023-12-22T01:10:56;3.47;;;1.02;;
49296;SDS011;35163;48.878;18.040;2023-12-22T01:13:23;1.90;;;1.05;;
49296;SDS011;35163;48.878;18.040;2023-12-22T01:15:50;4.93;;;1.08;;
49296;SDS011;35163;48.878;18.040;2023-12-22T01:18:17;2.58;;;0.90;;
49296;SDS011;35163;48.878;18.040;2023-12-22T01:20:44;2.40;;;1.10;;
49296;SDS011;35163;48.878;18.040;2023-12-22T01:23:10;3.40;;;0.90;;
49296;SDS011;35163;48.878;18.040;2023-12-22T01:25:37;3.95;;;1.33;;
49296;SDS011;35163;48.878;18.040;2023-12-22T01:28:04;2.25;;;1.02;;
49296;SDS011;35163;48.878;18.040;2023-12-22T01:30:31;2.55;;;1.20;;
49296;SDS011;35163;48.878;18.040;2023-12-22T01:32:58;4.78;;;1.08;;
49296;SDS011;35163;48.878;18.040;2023-12-22T01:35:25;2.17;;;1.10;;
49296;SDS011;35163;48.878;18.040;2023-12-22T01:37:52;6.78;;;1.33;;
49296;SDS011;35163;48.878;18.040;2023-12-22T01:40:18;2.42;;;0.90;;
49296;SDS011;35163;48.878;18.040;2023-12-22T01:42:45;4.13;;;1.10;;
49296;SDS011;35163;48.878;18.040;2023-12-22T01:45:13;6.63;;;0.95;;
49296;SDS011;35163;48.878;18.040;2023-12-22T01:47:40;4.22;;;1.10;;
49296;SDS011;35163;48.878;18.040;2023-12-22T01:50:08;4.30;;;1.83;;
49296;SDS011;35163;48.878;18.040;2023-12-22T01:52:38;5.97;;;1.60;;
49296;SDS011;35163;48.878;18.040;2023-12-22T01:55:07;9.13;;;2.08;;
49296;SDS011;35163;48.878;18.040;2023-12-22T01:57:38;3.78;;;1.23;;
49296;SDS011;35163;48.878;18.040;2023-12-22T02:00:08;5.60;;;1.30;;
49296;SDS011;35163;48.878;18.040;2023-12-22T02:02:35;6.57;;;1.40;;
49296;SDS011;35163;48.878;18.040;2023-12-22T02:05:04;7.05;;;1.52;;
49296;SDS011;35163;48.878;18.040;2023-12-22T02:07:35;5.43;;;1.25;;
49296;SDS011;35163;48.878;18.040;2023-12-22T02:10:02;3.72;;;1.42;;
49296;SDS011;35163;48.878;18.040;2023-12-22T02:12:30;3.00;;;1.10;;
49296;SDS011;35163;48.878;18.040;2023-12-22T02:14:56;6.57;;;1.60;;
49296;SDS011;35163;48.878;18.040;2023-12-22T02:17:24;2.92;;;1.05;;
49296;SDS011;35163;48.878;18.040;2023-12-22T02:19:59;7.68;;;1.75;;
49296;SDS011;35163;48.878;18.040;2023-12-22T02:22:30;6.80;;;1.25;;
49296;SDS011;35163;48.878;18.040;2023-12-22T02:24:57;7.28;;;1.20;;
49296;SDS011;35163;48.878;18.040;2023-12-22T02:30:19;6.18;;;1.10;;
49296;SDS011;35163;48.878;18.040;2023-12-22T02:33:06;4.15;;;1.00;;
49296;SDS011;35163;48.878;18.040;2023-12-22T02:35:36;2.05;;;0.88;;
49296;SDS011;35163;48.878;18.040;2023-12-22T02:38:04;4.43;;;1.55;;
49296;SDS011;35163;48.878;18.040;2023-12-22T02:40:33;6.20;;;0.80;;
49296;SDS011;35163;48.878;18.040;2023-12-22T02:43:02;3.10;;;1.00;;
49296;SDS011;35163;48.878;18.040;2023-12-22T02:45:29;4.93;;;1.00;;
49296;SDS011;35163;48.878;18.040;2023-12-22T02:47:56;5.72;;;1.35;;
49296;SDS011;35163;48.878;18.040;2023-12-22T02:50:23;5.03;;;1.35;;
49296;SDS011;35163;48.878;18.040;2023-12-22T02:52:50;4.65;;;1.30;;
49296;SDS011;35163;48.878;18.040;2023-12-22T02:55:17;5.93;;;1.30;;
49296;SDS011;35163;48.878;18.040;2023-12-22T02:57:44;5.68;;;1.52;;
49296;SDS011;35163;48.878;18.040;2023-12-22T03:00:11;5.72;;;1.45;;
49296;SDS011;35163;48.878;18.040;2023-12-22T03:02:38;4.55;;;1.10;;
49296;SDS011;35163;48.878;18.040;2023-12-22T03:05:05;7.10;;;1.20;;
49296;SDS011;35163;48.878;18.040;2023-12-22T03:07:32;5.82;;;1.25;;
49296;SDS011;35163;48.878;18.040;2023-12-22T03:09:59;8.52;;;1.42;;
49296;SDS011;35163;48.878;18.040;2023-12-22T03:12:25;6.97;;;1.50;;
49296;SDS011;35163;48.878;18.040;2023-12-22T03:14:52;5.97;;;1.75;;
49296;SDS011;35163;48.878;18.040;2023-12-22T03:17:19;4.93;;;1.10;;
49296;SDS011;35163;48.878;18.040;2023-12-22T03:19:45;6.05;;;1.50;;
49296;SDS011;35163;48.878;18.040;2023-12-22T03:22:12;6.15;;;1.48;;
49296;SDS011;35163;48.878;18.040;2023-12-22T03:24:39;5.80;;;1.65;;
49296;SDS011;35163;48.878;18.040;2023-12-22T03:27:06;4.22;;;1.42;;
49296;SDS011;35163;48.878;18.040;2023-12-22T03:29:33;4.20;;;1.15;;
49296;SDS011;35163;48.878;18.040;2023-12-22T03:31:59;9.43;;;1.52;;
49296;SDS011;35163;48.878;18.040;2023-12-22T03:34:26;5.65;;;1.58;;
49296;SDS011;35163;48.878;18.040;2023-12-22T03:36:53;4.78;;;1.25;;
49296;SDS011;35163;48.878;18.040;2023-12-22T03:39:20;7.88;;;1.70;;
49296;SDS011;35163;48.878;18.040;2023-12-22T03:41:46;6.32;;;1.52;;
49296;SDS011;35163;48.878;18.040;2023-12-22T03:44:13;6.60;;;1.40;;
49296;SDS011;35163;48.878;18.040;2023-12-22T03:46:40;6.97;;;1.45;;
49296;SDS011;35163;48.878;18.040;2023-12-22T03:49:06;6.88;;;1.42;;
49296;SDS011;35163;48.878;18.040;2023-12-22T03:51:33;5.65;;;1.58;;
49296;SDS011;35163;48.878;18.040;2023-12-22T03:54:00;9.07;;;1.80;;
49296;SDS011;35163;48.878;18.040;2023-12-22T03:56:27;5.93;;;1.30;;
49296;SDS011;35163;48.878;18.040;2023-12-22T03:58:54;11.13;;;1.83;;
49296;SDS011;35163;48.878;18.040;2023-12-22T04:01:22;6.35;;;1.50;;
49296;SDS011;35163;48.878;18.040;2023-12-22T04:03:48;4.32;;;1.30;;
49296;SDS011;35163;48.878;18.040;2023-12-22T04:06:15;8.35;;;1.40;;
49296;SDS011;35163;48.878;18.040;2023-12-22T04:08:42;9.13;;;1.50;;
49296;SDS011;35163;48.878;18.040;2023-12-22T04:11:09;5.88;;;1.33;;
49296;SDS011;35163;48.878;18.040;2023-12-22T04:13:35;8.45;;;1.50;;
49296;SDS011;35163;48.878;18.040;2023-12-22T04:16:02;7.88;;;1.58;;
49296;SDS011;35163;48.878;18.040;2023-12-22T04:18:31;7.20;;;1.33;;
49296;SDS011;35163;48.878;18.040;2023-12-22T04:20:58;7.55;;;1.20;;
49296;SDS011;35163;48.878;18.040;2023-12-22T04:23:25;4.72;;;1.38;;
49296;SDS011;35163;48.878;18.040;2023-12-22T04:25:52;4.47;;;1.27;;
49296;SDS011;35163;48.878;18.040;2023-12-22T04:28:19;7.93;;;1.50;;
49296;SDS011;35163;48.878;18.040;2023-12-22T04:30:45;9.27;;;1.92;;
49296;SDS011;35163;48.878;18.040;2023-12-22T04:33:12;7.30;;;1.55;;
49296;SDS011;35163;48.878;18.040;2023-12-22T04:35:39;6.20;;;1.30;;
49296;SDS011;35163;48.878;18.040;2023-12-22T04:38:06;9.25;;;1.60;;
49296;SDS011;35163;48.878;18.040;2023-12-22T04:40:32;9.50;;;1.50;;
49296;SDS011;35163;48.878;18.040;2023-12-22T04:42:59;7.25;;;1.65;;
49296;SDS011;35163;48.878;18.040;2023-12-22T04:45:26;6.70;;;1.65;;
49296;SDS011;35163;48.878;18.040;2023-12-22T04:47:53;8.68;;;1.35;;
49296;SDS011;35163;48.878;18.040;2023-12-22T04:50:20;8.68;;;1.92;;
49296;SDS011;35163;48.878;18.040;2023-12-22T04:52:46;9.25;;;1.70;;
49296;SDS011;35163;48.878;18.040;2023-12-22T04:55:13;8.50;;;1.45;;
49296;SDS011;35163;48.878;18.040;2023-12-22T04:57:41;4.45;;;1.35;;
49296;SDS011;35163;48.878;18.040;2023-12-22T05:00:08;8.88;;;1.45;;
49296;SDS011;35163;48.878;18.040;2023-12-22T05:02:35;6.68;;;1.85;;
49296;SDS011;35163;48.878;18.040;2023-12-22T05:05:02;6.50;;;1.85;;
49296;SDS011;35163;48.878;18.040;2023-12-22T05:07:29;7.85;;;1.83;;
49296;SDS011;35163;48.878;18.040;2023-12-22T05:09:56;8.23;;;1.50;;
49296;SDS011;35163;48.878;18.040;2023-12-22T05:12:23;7.18;;;1.63;;
49296;SDS011;35163;48.878;18.040;2023-12-22T05:14:50;8.65;;;1.52;;
49296;SDS011;35163;48.878;18.040;2023-12-22T05:17:16;8.77;;;1.70;;
49296;SDS011;35163;48.878;18.040;2023-12-22T05:19:43;5.63;;;1.30;;
49296;SDS011;35163;48.878;18.040;2023-12-22T05:22:10;7.10;;;1.50;;
49296;SDS011;35163;48.878;18.040;2023-12-22T05:24:37;10.38;;;1.77;;
49296;SDS011;35163;48.878;18.040;2023-12-22T05:27:04;9.45;;;1.90;;
49296;SDS011;35163;48.878;18.040;2023-12-22T05:29:31;6.30;;;1.60;;
49296;SDS011;35163;48.878;18.040;2023-12-22T05:31:57;6.75;;;1.83;;
49296;SDS011;35163;48.878;18.040;2023-12-22T05:34:24;6.50;;;1.58;;
49296;SDS011;35163;48.878;18.040;2023-12-22T05:36:51;5.00;;;1.40;;
49296;SDS011;35163;48.878;18.040;2023-12-22T05:39:18;5.15;;;1.52;;
49296;SDS011;35163;48.878;18.040;2023-12-22T05:41:44;6.50;;;1.85;;
49296;SDS011;35163;48.878;18.040;2023-12-22T05:44:11;6.72;;;1.65;;
49296;SDS011;35163;48.878;18.040;2023-12-22T05:46:38;8.25;;;1.40;;
49296;SDS011;35163;48.878;18.040;2023-12-22T05:49:05;8.00;;;1.67;;
49296;SDS011;35163;48.878;18.040;2023-12-22T05:51:41;5.45;;;1.70;;
49296;SDS011;35163;48.878;18.040;2023-12-22T05:54:08;6.22;;;1.73;;
49296;SDS011;35163;48.878;18.040;2023-12-22T05:56:35;7.78;;;1.73;;
49296;SDS011;35163;48.878;18.040;2023-12-22T05:59:01;8.43;;;2.05;;
49296;SDS011;35163;48.878;18.040;2023-12-22T06:01:29;8.98;;;1.50;;
49296;SDS011;35163;48.878;18.040;2023-12-22T06:03:56;9.48;;;1.80;;
49296;SDS011;35163;48.878;18.040;2023-12-22T06:06:23;12.07;;;1.88;;
49296;SDS011;35163;48.878;18.040;2023-12-22T06:08:50;8.95;;;2.22;;
49296;SDS011;35163;48.878;18.040;2023-12-22T06:11:17;10.52;;;2.70;;
49296;SDS011;35163;48.878;18.040;2023-12-22T06:13:43;6.88;;;1.77;;
49296;SDS011;35163;48.878;18.040;2023-12-22T06:16:14;10.45;;;2.08;;
49296;SDS011;35163;48.878;18.040;2023-12-22T06:18:41;12.52;;;2.17;;
49296;SDS011;35163;48.878;18.040;2023-12-22T06:21:08;8.50;;;2.25;;
49296;SDS011;35163;48.878;18.040;2023-12-22T06:23:36;8.30;;;1.65;;
49296;SDS011;35163;48.878;18.040;2023-12-22T06:26:10;16.10;;;3.03;;
49296;SDS011;35163;48.878;18.040;2023-12-22T06:28:37;7.70;;;1.83;;
49296;SDS011;35163;48.878;18.040;2023-12-22T06:31:06;7.07;;;1.88;;
49296;SDS011;35163;48.878;18.040;2023-12-22T06:33:34;10.40;;;2.03;;
49296;SDS011;35163;48.878;18.040;2023-12-22T06:36:01;5.97;;;1.40;;
49296;SDS011;35163;48.878;18.040;2023-12-22T06:38:28;10.63;;;2.22;;
49296;SDS011;35163;48.878;18.040;2023-12-22T06:40:55;7.10;;;1.73;;
49296;SDS011;35163;48.878;18.040;2023-12-22T06:43:22;12.32;;;2.28;;
49296;SDS011;35163;48.878;18.040;2023-12-22T06:45:49;11.32;;;1.98;;
49296;SDS011;35163;48.878;18.040;2023-12-22T06:48:15;10.60;;;2.17;;
49296;SDS011;35163;48.878;18.040;2023-12-22T06:50:43;9.45;;;1.98;;
49296;SDS011;35163;48.878;18.040;2023-12-22T06:53:11;10.35;;;2.13;;
49296;SDS011;35163;48.878;18.040;2023-12-22T06:55:51;8.60;;;1.77;;
49296;SDS011;35163;48.878;18.040;2023-12-22T06:58:18;8.75;;;1.88;;
49296;SDS011;35163;48.878;18.040;2023-12-22T07:00:48;5.43;;;1.40;;
49296;SDS011;35163;48.878;18.040;2023-12-22T07:03:15;4.30;;;1.30;;
49296;SDS011;35163;48.878;18.040;2023-12-22T07:05:43;10.13;;;2.42;;
49296;SDS011;35163;48.878;18.040;2023-12-22T07:08:11;10.00;;;1.90;;
49296;SDS011;35163;48.878;18.040;2023-12-22T07:10:38;10.07;;;1.90;;
49296;SDS011;35163;48.878;18.040;2023-12-22T07:13:05;10.70;;;1.80;;
49296;SDS011;35163;48.878;18.040;2023-12-22T07:15:33;9.05;;;2.03;;
49296;SDS011;35163;48.878;18.040;2023-12-22T07:17:59;12.65;;;2.42;;
49296;SDS011;35163;48.878;18.040;2023-12-22T07:20:28;9.43;;;2.13;;
49296;SDS011;35163;48.878;18.040;2023-12-22T07:22:55;9.57;;;2.55;;
49296;SDS011;35163;48.878;18.040;2023-12-22T07:25:23;10.68;;;2.40;;
49296;SDS011;35163;48.878;18.040;2023-12-22T07:27:50;11.20;;;2.33;;
49296;SDS011;35163;48.878;18.040;2023-12-22T07:30:18;14.85;;;2.25;;
49296;SDS011;35163;48.878;18.040;2023-12-22T07:32:47;10.82;;;2.00;;
49296;SDS011;35163;48.878;18.040;2023-12-22T07:35:19;12.60;;;2.72;;
49296;SDS011;35163;48.878;18.040;2023-12-22T07:37:46;9.45;;;1.92;;
49296;SDS011;35163;48.878;18.040;2023-12-22T07:40:13;11.30;;;2.10;;
49296;SDS011;35163;48.878;18.040;2023-12-22T07:42:42;12.48;;;2.45;;
49296;SDS011;35163;48.878;18.040;2023-12-22T07:45:09;13.43;;;2.63;;
49296;SDS011;35163;48.878;18.040;2023-12-22T07:47:36;10.27;;;2.08;;
49296;SDS011;35163;48.878;18.040;2023-12-22T07:50:04;13.90;;;2.88;;
49296;SDS011;35163;48.878;18.040;2023-12-22T07:52:37;10.63;;;2.10;;
49296;SDS011;35163;48.878;18.040;2023-12-22T07:55:07;12.27;;;2.50;;
49296;SDS011;35163;48.878;18.040;2023-12-22T07:57:38;17.67;;;3.22;;
49296;SDS011;35163;48.878;18.040;2023-12-22T08:00:05;9.55;;;1.95;;
49296;SDS011;35163;48.878;18.040;2023-12-22T08:02:32;14.68;;;3.67;;
49296;SDS011;35163;48.878;18.040;2023-12-22T08:04:59;12.32;;;2.17;;
49296;SDS011;35163;48.878;18.040;2023-12-22T08:07:26;6.03;;;2.00;;
49296;SDS011;35163;48.878;18.040;2023-12-22T08:09:53;10.23;;;1.80;;
49296;SDS011;35163;48.878;18.040;2023-12-22T08:12:20;9.75;;;2.05;;
49296;SDS011;35163;48.878;18.040;2023-12-22T08:14:46;10.90;;;2.10;;
49296;SDS011;35163;48.878;18.040;2023-12-22T08:17:13;9.80;;;2.13;;
49296;SDS011;35163;48.878;18.040;2023-12-22T08:19:40;7.55;;;1.92;;
49296;SDS011;35163;48.878;18.040;2023-12-22T08:22:12;7.78;;;2.17;;
49296;SDS011;35163;48.878;18.040;2023-12-22T08:24:40;9.70;;;1.83;;
49296;SDS011;35163;48.878;18.040;2023-12-22T08:27:08;8.20;;;2.00;;
49296;SDS011;35163;48.878;18.040;2023-12-22T08:29:35;8.40;;;1.80;;
49296;SDS011;35163;48.878;18.040;2023-12-22T08:32:02;16.92;;;2.72;;
49296;SDS011;35163;48.878;18.040;2023-12-22T08:34:29;13.07;;;2.75;;
49296;SDS011;35163;48.878;18.040;2023-12-22T08:36:56;10.15;;;2.10;;
49296;SDS011;35163;48.878;18.040;2023-12-22T08:39:22;13.82;;;2.20;;
49296;SDS011;35163;48.878;18.040;2023-12-22T08:41:51;11.95;;;1.80;;
49296;SDS011;35163;48.878;18.040;2023-12-22T08:44:18;10.40;;;1.90;;
49296;SDS011;35163;48.878;18.040;2023-12-22T08:46:46;11.20;;;2.28;;
49296;SDS011;35163;48.878;18.040;2023-12-22T08:49:12;11.93;;;2.00;;
49296;SDS011;35163;48.878;18.040;2023-12-22T08:51:39;8.73;;;2.05;;
49296;SDS011;35163;48.878;18.040;2023-12-22T08:54:07;7.05;;;1.70;;
49296;SDS011;35163;48.878;18.040;2023-12-22T08:56:34;7.28;;;1.77;;
49296;SDS011;35163;48.878;18.040;2023-12-22T08:59:02;9.38;;;1.77;;
49296;SDS011;35163;48.878;18.040;2023-12-22T09:01:29;8.40;;;1.80;;
49296;SDS011;35163;48.878;18.040;2023-12-22T09:03:55;10.57;;;1.60;;
49296;SDS011;35163;48.878;18.040;2023-12-22T09:06:22;7.50;;;2.08;;
49296;SDS011;35163;48.878;18.040;2023-12-22T09:08:51;9.23;;;2.10;;
49296;SDS011;35163;48.878;18.040;2023-12-22T09:11:20;8.55;;;1.80;;
49296;SDS011;35163;48.878;18.040;2023-12-22T09:13:48;7.38;;;1.58;;
49296;SDS011;35163;48.878;18.040;2023-12-22T09:16:19;8.48;;;1.95;;
49296;SDS011;35163;48.878;18.040;2023-12-22T09:18:48;11.90;;;2.13;;
49296;SDS011;35163;48.878;18.040;2023-12-22T09:21:16;5.65;;;1.40;;
49296;SDS011;35163;48.878;18.040;2023-12-22T09:23:44;11.23;;;1.88;;
49296;SDS011;35163;48.878;18.040;2023-12-22T09:26:13;12.13;;;2.33;;
49296;SDS011;35163;48.878;18.040;2023-12-22T09:28:40;9.88;;;1.92;;
49296;SDS011;35163;48.878;18.040;2023-12-22T09:31:08;7.45;;;1.63;;
49296;SDS011;35163;48.878;18.040;2023-12-22T09:33:36;7.30;;;1.38;;
49296;SDS011;35163;48.878;18.040;2023-12-22T09:36:03;6.20;;;1.48;;
49296;SDS011;35163;48.878;18.040;2023-12-22T09:38:30;7.47;;;1.50;;
49296;SDS011;35163;48.878;18.040;2023-12-22T09:40:57;8.85;;;1.67;;
49296;SDS011;35163;48.878;18.040;2023-12-22T09:43:25;2.90;;;1.05;;
49296;SDS011;35163;48.878;18.040;2023-12-22T09:45:52;5.70;;;1.45;;
49296;SDS011;35163;48.878;18.040;2023-12-22T09:48:20;8.32;;;1.52;;
49296;SDS011;35163;48.878;18.040;2023-12-22T09:50:54;6.75;;;1.30;;
49296;SDS011;35163;48.878;18.040;2023-12-22T09:53:24;4.75;;;1.80;;
49296;SDS011;35163;48.878;18.040;2023-12-22T09:55:52;7.03;;;1.35;;
49296;SDS011;35163;48.878;18.040;2023-12-22T09:58:20;7.35;;;1.52;;
49296;SDS011;35163;48.878;18.040;2023-12-22T10:00:50;5.40;;;1.10;;
49296;SDS011;35163;48.878;18.040;2023-12-22T10:03:17;6.72;;;1.40;;
49296;SDS011;35163;48.878;18.040;2023-12-22T10:05:46;4.60;;;1.52;;
49296;SDS011;35163;48.878;18.040;2023-12-22T10:08:14;2.83;;;1.05;;
49296;SDS011;35163;48.878;18.040;2023-12-22T10:10:41;6.95;;;1.65;;
49296;SDS011;35163;48.878;18.040;2023-12-22T10:13:09;2.63;;;1.10;;
49296;SDS011;35163;48.878;18.040;2023-12-22T10:15:40;5.78;;;1.35;;
49296;SDS011;35163;48.878;18.040;2023-12-22T10:18:08;2.25;;;1.05;;
49296;SDS011;35163;48.878;18.040;2023-12-22T10:20:36;5.65;;;1.27;;
49296;SDS011;35163;48.878;18.040;2023-12-22T10:23:03;4.55;;;1.38;;
49296;SDS011;35163;48.878;18.040;2023-12-22T10:25:30;5.28;;;2.03;;
49296;SDS011;35163;48.878;18.040;2023-12-22T10:27:58;2.35;;;1.08;;
49296;SDS011;35163;48.878;18.040;2023-12-22T10:30:25;2.35;;;1.10;;
49296;SDS011;35163;48.878;18.040;2023-12-22T10:32:54;2.42;;;1.00;;
49296;SDS011;35163;48.878;18.040;2023-12-22T10:35:21;3.70;;;1.20;;
49296;SDS011;35163;48.878;18.040;2023-12-22T10:37:49;2.50;;;1.08;;
49296;SDS011;35163;48.878;18.040;2023-12-22T10:40:20;8.35;;;1.15;;
49296;SDS011;35163;48.878;18.040;2023-12-22T10:42:49;2.35;;;0.90;;
49296;SDS011;35163;48.878;18.040;2023-12-22T10:45:20;4.47;;;1.40;;
49296;SDS011;35163;48.878;18.040;2023-12-22T10:47:48;4.57;;;1.15;;
49296;SDS011;35163;48.878;18.040;2023-12-22T10:50:21;4.00;;;1.17;;
49296;SDS011;35163;48.878;18.040;2023-12-22T10:52:51;5.30;;;1.50;;
49296;SDS011;35163;48.878;18.040;2023-12-22T10:55:18;7.47;;;1.15;;
49296;SDS011;35163;48.878;18.040;2023-12-22T10:57:46;4.40;;;1.70;;
49296;SDS011;35163;48.878;18.040;2023-12-22T11:00:16;5.75;;;1.25;;
49296;SDS011;35163;48.878;18.040;2023-12-22T11:02:47;3.63;;;1.10;;
49296;SDS011;35163;48.878;18.040;2023-12-22T11:05:17;5.93;;;1.58;;
49296;SDS011;35163;48.878;18.040;2023-12-22T11:07:48;7.32;;;2.92;;
49296;SDS011;35163;48.878;18.040;2023-12-22T11:10:18;3.90;;;1.35;;
49296;SDS011;35163;48.878;18.040;2023-12-22T11:12:46;5.10;;;1.50;;
49296;SDS011;35163;48.878;18.040;2023-12-22T11:15:13;7.93;;;1.83;;
49296;SDS011;35163;48.878;18.040;2023-12-22T11:17:41;5.63;;;1.45;;
49296;SDS011;35163;48.878;18.040;2023-12-22T11:20:09;6.65;;;1.45;;
49296;SDS011;35163;48.878;18.040;2023-12-22T11:22:37;6.20;;;1.83;;
49296;SDS011;35163;48.878;18.040;2023-12-22T11:25:06;6.00;;;1.90;;
49296;SDS011;35163;48.878;18.040;2023-12-22T11:27:34;7.43;;;1.38;;
49296;SDS011;35163;48.878;18.040;2023-12-22T11:30:04;6.75;;;1.45;;
49296;SDS011;35163;48.878;18.040;2023-12-22T11:32:35;6.25;;;1.60;;
49296;SDS011;35163;48.878;18.040;2023-12-22T11:35:02;6.15;;;1.50;;
49296;SDS011;35163;48.878;18.040;2023-12-22T11:37:31;8.85;;;2.05;;
49296;SDS011;35163;48.878;18.040;2023-12-22T11:40:00;2.03;;;1.10;;
49296;SDS011;35163;48.878;18.040;2023-12-22T11:42:31;6.72;;;1.30;;
49296;SDS011;35163;48.878;18.040;2023-12-22T11:45:04;6.70;;;1.58;;
49296;SDS011;35163;48.878;18.040;2023-12-22T11:47:31;3.97;;;1.35;;
49296;SDS011;35163;48.878;18.040;2023-12-22T11:50:01;4.53;;;1.13;;
49296;SDS011;35163;48.878;18.040;2023-12-22T11:52:27;5.95;;;1.45;;
49296;SDS011;35163;48.878;18.040;2023-12-22T11:54:55;3.90;;;1.20;;
49296;SDS011;35163;48.878;18.040;2023-12-22T12:00:01;5.45;;;1.30;;
49296;SDS011;35163;48.878;18.040;2023-12-22T12:02:36;1.02;;;0.70;;
49296;SDS011;35163;48.878;18.040;2023-12-22T12:05:07;5.15;;;1.55;;
49296;SDS011;35163;48.878;18.040;2023-12-22T12:07:45;1.48;;;0.73;;
49296;SDS011;35163;48.878;18.040;2023-12-22T12:13:07;3.83;;;1.00;;
49296;SDS011;35163;48.878;18.040;2023-12-22T12:15:37;2.60;;;1.13;;
49296;SDS011;35163;48.878;18.040;2023-12-22T12:18:05;1.42;;;0.85;;
49296;SDS011;35163;48.878;18.040;2023-12-22T12:20:32;2.60;;;0.70;;
49296;SDS011;35163;48.878;18.040;2023-12-22T12:23:03;1.55;;;1.08;;
49296;SDS011;35163;48.878;18.040;2023-12-22T12:25:30;0.88;;;0.55;;
49296;SDS011;35163;48.878;18.040;2023-12-22T12:28:03;1.98;;;0.90;;
49296;SDS011;35163;48.878;18.040;2023-12-22T12:30:30;0.68;;;0.60;;
49296;SDS011;35163;48.878;18.040;2023-12-22T12:35:35;1.40;;;0.75;;
49296;SDS011;35163;48.878;18.040;2023-12-22T12:38:10;4.63;;;1.10;;
49296;SDS011;35163;48.878;18.040;2023-12-22T12:40:38;2.00;;;0.88;;
49296;SDS011;35163;48.878;18.040;2023-12-22T12:43:07;1.88;;;0.77;;
49296;SDS011;35163;48.878;18.040;2023-12-22T12:45:34;2.72;;;1.00;;
49296;SDS011;35163;48.878;18.040;2023-12-22T12:48:01;3.65;;;1.00;;
49296;SDS011;35163;48.878;18.040;2023-12-22T12:50:33;1.42;;;0.90;;
49296;SDS011;35163;48.878;18.040;2023-12-22T12:53:00;2.22;;;0.95;;
49296;SDS011;35163;48.878;18.040;2023-12-22T12:55:27;2.97;;;1.05;;
49296;SDS011;35163;48.878;18.040;2023-12-22T12:57:55;2.47;;;1.00;;
49296;SDS011;35163;48.878;18.040;2023-12-22T13:00:32;3.75;;;1.10;;
49296;SDS011;35163;48.878;18.040;2023-12-22T13:03:03;3.05;;;0.90;;
49296;SDS011;35163;48.878;18.040;2023-12-22T13:05:32;2.00;;;1.00;;
49296;SDS011;35163;48.878;18.040;2023-12-22T13:08:08;4.40;;;1.23;;
49296;SDS011;35163;48.878;18.040;2023-12-22T13:13:04;3.15;;;1.05;;
49296;SDS011;35163;48.878;18.040;2023-12-22T13:15:31;2.33;;;1.02;;
49296;SDS011;35163;48.878;18.040;2023-12-22T13:17:58;2.70;;;1.20;;
49296;SDS011;35163;48.878;18.040;2023-12-22T13:20:25;2.35;;;1.05;;
49296;SDS011;35163;48.878;18.040;2023-12-22T13:22:53;2.75;;;1.00;;
49296;SDS011;35163;48.878;18.040;2023-12-22T13:25:21;3.08;;;1.17;;
49296;SDS011;35163;48.878;18.040;2023-12-22T13:27:50;3.65;;;0.80;;
49296;SDS011;35163;48.878;18.040;2023-12-22T13:30:34;3.80;;;1.23;;
49296;SDS011;35163;48.878;18.040;2023-12-22T13:33:02;5.47;;;1.30;;
49296;SDS011;35163;48.878;18.040;2023-12-22T13:35:30;3.72;;;1.15;;
49296;SDS011;35163;48.878;18.040;2023-12-22T13:37:57;4.50;;;1.40;;
49296;SDS011;35163;48.878;18.040;2023-12-22T13:40:25;2.20;;;1.00;;
49296;SDS011;35163;48.878;18.040;2023-12-22T13:42:55;4.45;;;1.38;;
49296;SDS011;35163;48.878;18.040;2023-12-22T13:45:24;2.15;;;0.93;;
49296;SDS011;35163;48.878;18.040;2023-12-22T13:47:52;1.27;;;0.70;;
49296;SDS011;35163;48.878;18.040;2023-12-22T13:50:19;1.85;;;0.85;;
49296;SDS011;35163;48.878;18.040;2023-12-22T13:52:50;2.58;;;0.98;;
49296;SDS011;35163;48.878;18.040;2023-12-22T13:55:18;4.25;;;1.20;;
49296;SDS011;35163;48.878;18.040;2023-12-22T13:57:58;2.25;;;0.80;;
49296;SDS011;35163;48.878;18.040;2023-12-22T14:00:27;1.95;;;0.80;;
49296;SDS011;35163;48.878;18.040;2023-12-22T14:02:55;2.85;;;0.90;;
49296;SDS011;35163;48.878;18.040;2023-12-22T14:05:22;3.38;;;1.50;;
49296;SDS011;35163;48.878;18.040;2023-12-22T14:07:49;360.70;;;164.50;;
49296;SDS011;35163;48.878;18.040;2023-12-22T14:10:17;336.00;;;147.85;;
49296;SDS011;35163;48.878;18.040;2023-12-22T14:12:44;281.23;;;122.03;;
49296;SDS011;35163;48.878;18.040;2023-12-22T14:15:11;278.23;;;120.10;;
49296;SDS011;35163;48.878;18.040;2023-12-22T14:17:38;272.77;;;120.35;;
49296;SDS011;35163;48.878;18.040;2023-12-22T14:20:05;272.35;;;120.03;;
49296;SDS011;35163;48.878;18.040;2023-12-22T14:22:36;259.60;;;115.60;;
49296;SDS011;35163;48.878;18.040;2023-12-22T14:25:04;265.80;;;119.10;;
49296;SDS011;35163;48.878;18.040;2023-12-22T14:27:32;270.92;;;119.50;;
49296;SDS011;35163;48.878;18.040;2023-12-22T14:29:59;278.55;;;123.70;;
49296;SDS011;35163;48.878;18.040;2023-12-22T14:32:25;252.10;;;113.97;;
49296;SDS011;35163;48.878;18.040;2023-12-22T14:34:52;243.45;;;113.47;;
49296;SDS011;35163;48.878;18.040;2023-12-22T14:37:19;94.78;;;45.75;;
49296;SDS011;35163;48.878;18.040;2023-12-22T14:39:47;51.92;;;23.83;;
49296;SDS011;35163;48.878;18.040;2023-12-22T14:42:14;40.72;;;18.77;;
49296;SDS011;35163;48.878;18.040;2023-12-22T14:44:41;46.40;;;21.92;;
49296;SDS011;35163;48.878;18.040;2023-12-22T14:47:07;38.30;;;16.05;;
49296;SDS011;35163;48.878;18.040;2023-12-22T14:49:39;20.85;;;9.00;;